createdAt,value
2019-03-10T00:01:56.179Z,60.16
2019-03-10T00:04:30.295Z,60.08
2019-03-10T00:07:04.616Z,60.08
2019-03-10T00:09:39.184Z,60.08
2019-03-10T00:12:13.311Z,60.06
2019-03-10T00:14:49.647Z,60.07
2019-03-10T00:17:24.892Z,60.10
2019-03-10T00:19:59.245Z,60.08
2019-03-10T00:22:33.679Z,60.08
2019-03-10T00:25:08.271Z,60.11
2019-03-10T00:27:42.616Z,60.07
2019-03-10T00:30:17.162Z,60.06
2019-03-10T00:32:52.520Z,60.09
2019-03-10T00:35:26.780Z,60.06
2019-03-10T00:38:00.980Z,60.05
2019-03-10T00:41:05.592Z,60.02
2019-03-10T00:44:18.409Z,60.02
2019-03-10T00:47:17.324Z,60.01
2019-03-10T00:50:33.099Z,60.04
2019-03-10T00:53:07.069Z,59.98
2019-03-10T00:55:41.190Z,59.96
2019-03-10T00:58:15.617Z,59.97
2019-03-10T01:00:49.927Z,59.98
2019-03-10T01:03:25.100Z,59.98
2019-03-10T01:05:59.478Z,59.96
2019-03-10T01:08:33.552Z,59.97
2019-03-10T01:11:07.901Z,59.98
2019-03-10T01:13:41.993Z,60.00
2019-03-10T01:16:16.541Z,59.99
2019-03-10T01:18:53.982Z,59.97
2019-03-10T01:21:31.758Z,60.01
2019-03-10T01:24:06.229Z,60.00
2019-03-10T01:26:40.413Z,59.97
2019-03-10T01:29:14.661Z,60.01
2019-03-10T01:32:18.101Z,59.50
2019-03-10T01:34:59.954Z,59.31
2019-03-10T01:37:33.919Z,59.32
2019-03-10T01:40:09.751Z,59.35
2019-03-10T01:42:44.112Z,59.39
2019-03-10T01:45:18.532Z,59.37
2019-03-10T01:47:53.057Z,59.42
2019-03-10T01:50:27.162Z,59.48
2019-03-10T01:53:02.489Z,59.46
2019-03-10T01:55:36.706Z,59.49
2019-03-10T01:58:10.690Z,59.47
2019-03-10T02:00:44.856Z,59.49
2019-03-10T02:03:21.129Z,59.48
2019-03-10T02:05:55.493Z,59.52
2019-03-10T02:08:29.696Z,59.49
2019-03-10T02:11:04.989Z,59.49
2019-03-10T02:13:39.065Z,59.51
2019-03-10T02:16:13.272Z,59.53
2019-03-10T02:18:47.484Z,59.52
2019-03-10T02:21:21.833Z,59.54
2019-03-10T02:23:56.115Z,59.50
2019-03-10T02:26:30.195Z,59.54
2019-03-10T02:29:04.708Z,59.54
2019-03-10T02:31:38.844Z,59.51
2019-03-10T02:34:15.169Z,59.56
2019-03-10T02:36:49.255Z,59.56
2019-03-10T02:39:23.584Z,59.58
2019-03-10T02:41:58.949Z,59.57
2019-03-10T02:44:33.257Z,59.61
2019-03-10T02:47:07.340Z,59.59
2019-03-10T02:49:41.371Z,59.57
2019-03-10T02:52:15.626Z,59.60
2019-03-10T02:54:49.507Z,59.61
2019-03-10T02:57:24.874Z,59.62
2019-03-10T02:59:59.036Z,59.63
2019-03-10T03:02:33.272Z,59.70
2019-03-10T03:05:08.217Z,59.63
2019-03-10T03:07:42.552Z,59.65
2019-03-10T03:10:17.365Z,59.63
2019-03-10T03:12:52.607Z,59.61
2019-03-10T03:15:26.719Z,59.56
2019-03-10T03:18:02.905Z,59.53
2019-03-10T03:20:37.136Z,59.47
2019-03-10T03:23:12.272Z,59.42
2019-03-10T03:25:46.307Z,59.39
2019-03-10T03:28:21.677Z,59.42
2019-03-10T03:30:56.765Z,59.67
2019-03-10T03:33:32.103Z,59.85
2019-03-10T03:36:11.092Z,59.98
2019-03-10T03:38:52.102Z,60.04
2019-03-10T03:41:26.350Z,60.04
2019-03-10T03:44:00.448Z,60.06
2019-03-10T03:46:34.546Z,60.17
2019-03-10T03:49:08.783Z,60.10
2019-03-10T03:51:43.309Z,60.20
2019-03-10T03:54:17.755Z,56.22
2019-03-10T03:56:55.887Z,56.81
2019-03-10T03:59:33.430Z,56.52
2019-03-10T04:02:19.282Z,54.92
2019-03-10T04:04:54.555Z,56.81
2019-03-10T04:07:28.866Z,57.18
2019-03-10T04:10:04.242Z,57.00
2019-03-10T04:12:38.753Z,56.78
2019-03-10T04:15:13.025Z,56.97
2019-03-10T04:17:47.238Z,57.14
2019-03-10T04:20:21.507Z,58.30
2019-03-10T04:22:55.816Z,59.94
2019-03-10T04:25:30.124Z,60.56
2019-03-10T04:28:04.406Z,60.25
2019-03-10T04:30:38.542Z,60.46
2019-03-10T04:33:12.739Z,60.57
2019-03-10T04:35:47.159Z,60.76
2019-03-10T04:38:21.296Z,60.50
2019-03-10T04:40:55.387Z,60.27
2019-03-10T04:43:32.776Z,60.22
2019-03-10T04:46:07.977Z,60.20
2019-03-10T04:48:42.173Z,60.16
2019-03-10T04:51:16.568Z,60.16
2019-03-10T04:53:50.945Z,60.17
2019-03-10T04:56:59.314Z,60.01
2019-03-10T04:59:33.493Z,60.29
2019-03-10T05:02:07.731Z,59.99
2019-03-10T05:04:41.965Z,59.90
2019-03-10T05:07:16.349Z,59.81
2019-03-10T05:09:50.855Z,59.81
2019-03-10T05:12:25.078Z,59.79
2019-03-10T05:14:59.427Z,59.80
2019-03-10T05:17:33.676Z,59.73
2019-03-10T05:20:08.351Z,60.05
2019-03-10T05:22:42.496Z,60.41
2019-03-10T05:25:16.840Z,60.62
2019-03-10T05:27:51.146Z,61.27
2019-03-10T05:30:25.606Z,61.43
2019-03-10T05:32:59.993Z,61.14
2019-03-10T05:35:34.284Z,61.28
2019-03-10T05:38:08.524Z,61.40
2019-03-10T05:40:42.657Z,61.47
2019-03-10T05:43:16.654Z,61.47
2019-03-10T05:45:50.876Z,61.47
2019-03-10T05:48:25.145Z,61.42
2019-03-10T05:50:59.348Z,61.45
2019-03-10T05:53:33.323Z,61.41
2019-03-10T05:56:07.569Z,61.35
2019-03-10T05:58:41.800Z,61.37
2019-03-10T06:01:16.047Z,61.40
2019-03-10T06:03:50.056Z,61.35
2019-03-10T06:06:24.239Z,61.37
2019-03-10T06:08:58.278Z,61.27
2019-03-10T06:11:32.455Z,61.22
2019-03-10T06:14:06.866Z,61.31
2019-03-10T06:16:41.073Z,61.19
2019-03-10T06:19:15.512Z,61.17
2019-03-10T06:21:49.804Z,61.15
2019-03-10T06:24:24.286Z,61.03
2019-03-10T06:26:58.747Z,61.05
2019-03-10T06:29:33.098Z,61.04
2019-03-10T06:32:07.128Z,60.97
2019-03-10T06:34:41.454Z,61.02
2019-03-10T06:37:16.605Z,61.04
2019-03-10T06:39:51.135Z,60.93
2019-03-10T06:42:25.888Z,60.98
2019-03-10T06:45:01.057Z,60.92
2019-03-10T06:47:35.394Z,60.76
2019-03-10T06:50:12.416Z,60.92
2019-03-10T06:52:46.486Z,60.72
2019-03-10T06:55:20.959Z,60.67
2019-03-10T06:57:55.153Z,60.81
2019-03-10T07:00:29.401Z,60.72
2019-03-10T07:03:03.647Z,60.73
2019-03-10T07:05:38.301Z,60.62
2019-03-10T07:08:13.470Z,60.53
2019-03-10T07:10:48.784Z,60.63
2019-03-10T07:13:23.405Z,60.59
2019-03-10T07:15:58.033Z,60.58
2019-03-10T07:18:32.401Z,60.46
2019-03-10T07:21:07.581Z,60.38
2019-03-10T07:23:44.148Z,60.46
2019-03-10T07:26:18.665Z,60.31
2019-03-10T07:29:11.572Z,60.45
2019-03-10T07:32:10.676Z,60.36
2019-03-10T07:35:16.118Z,60.20
2019-03-10T07:37:57.926Z,60.11
2019-03-10T07:41:00.175Z,60.10
2019-03-10T07:43:42.489Z,60.06
2019-03-10T07:46:25.829Z,60.01
2019-03-10T07:49:18.538Z,60.12
2019-03-10T07:52:19.767Z,60.09
2019-03-10T07:54:57.668Z,59.96
2019-03-10T07:57:46.255Z,59.91
2019-03-10T08:00:38.447Z,59.84
2019-03-10T08:03:30.272Z,59.90
2019-03-10T08:06:23.332Z,60.00
2019-03-10T08:09:20.430Z,59.88
2019-03-10T08:12:11.090Z,59.78
2019-03-10T08:15:23.541Z,59.81
2019-03-10T08:18:22.178Z,59.76
2019-03-10T08:21:32.796Z,59.86
2019-03-10T08:24:16.674Z,59.80
2019-03-10T08:27:08.259Z,59.61
2019-03-10T08:30:19.594Z,58.02
2019-03-10T08:33:11.428Z,56.95
2019-03-10T08:36:08.727Z,55.93
2019-03-10T08:38:51.413Z,55.86
2019-03-10T08:41:36.885Z,55.85
2019-03-10T08:44:27.245Z,55.95
2019-03-10T08:47:32.200Z,55.96
2019-03-10T08:50:28.328Z,55.99
2019-03-10T08:53:28.505Z,56.14
2019-03-10T08:56:19.920Z,56.18
2019-03-10T08:59:06.668Z,56.30
2019-03-10T09:02:11.410Z,56.25
2019-03-10T09:05:07.341Z,56.29
2019-03-10T09:08:00.630Z,56.40
2019-03-10T09:10:49.160Z,56.47
2019-03-10T09:13:40.934Z,56.36
2019-03-10T09:16:39.173Z,56.39
2019-03-10T09:19:36.313Z,56.40
2019-03-10T09:22:17.903Z,56.56
2019-03-10T09:25:08.759Z,56.54
2019-03-10T09:28:13.633Z,56.48
2019-03-10T09:30:53.490Z,56.61
2019-03-10T09:33:33.085Z,56.39
2019-03-10T09:36:24.533Z,55.90
2019-03-10T09:39:30.036Z,55.46
2019-03-10T09:42:28.669Z,55.55
2019-03-10T09:45:35.047Z,55.70
2019-03-10T09:48:39.381Z,55.70
2019-03-10T09:51:40.145Z,55.83
2019-03-10T09:54:35.883Z,55.84
2019-03-10T09:57:40.799Z,55.96
2019-03-10T10:00:29.005Z,56.05
2019-03-10T10:03:14.165Z,56.08
2019-03-10T10:06:16.233Z,56.10
2019-03-10T10:09:12.156Z,56.08
2019-03-10T10:11:55.368Z,56.14
2019-03-10T10:14:40.456Z,56.13
2019-03-10T10:17:29.423Z,56.25
2019-03-10T10:20:13.307Z,56.29
2019-03-10T10:23:09.590Z,56.30
2019-03-10T10:25:54.016Z,56.27
2019-03-10T10:28:39.305Z,56.34
2019-03-10T10:31:38.344Z,56.31
2019-03-10T10:34:37.511Z,56.35
2019-03-10T10:37:19.800Z,56.29
2019-03-10T10:40:21.599Z,56.31
2019-03-10T10:43:13.193Z,56.40
2019-03-10T10:45:56.867Z,56.40
2019-03-10T10:48:41.257Z,56.36
2019-03-10T10:51:33.679Z,56.48
2019-03-10T10:54:23.954Z,56.46
2019-03-10T10:57:09.632Z,56.45
2019-03-10T10:59:58.969Z,56.51
2019-03-10T11:02:51.823Z,56.53
2019-03-10T11:05:52.045Z,56.59
2019-03-10T11:08:36.628Z,56.55
2019-03-10T11:11:33.450Z,56.65
2019-03-10T11:14:34.748Z,56.65
2019-03-10T11:17:40.455Z,56.64
2019-03-10T11:20:34.753Z,56.66
2019-03-10T11:23:24.463Z,56.72
2019-03-10T11:26:08.613Z,56.81
2019-03-10T11:29:04.635Z,56.84
2019-03-10T11:32:03.896Z,56.88
2019-03-10T11:34:50.850Z,56.99
2019-03-10T11:37:42.370Z,56.95
2019-03-10T11:40:28.330Z,57.05
2019-03-10T11:43:13.635Z,56.96
2019-03-10T11:46:07.478Z,57.01
2019-03-10T11:48:59.088Z,57.08
2019-03-10T11:51:43.385Z,57.20
2019-03-10T11:54:42.547Z,57.14
2019-03-10T11:57:45.993Z,57.27
2019-03-10T12:00:41.962Z,57.31
2019-03-10T12:03:44.250Z,57.27
2019-03-10T12:06:24.639Z,57.34
2019-03-10T12:09:17.458Z,57.30
2019-03-10T12:11:50.210Z,57.32
2019-03-10T12:14:25.343Z,57.37
2019-03-10T12:16:59.546Z,57.36
2019-03-10T12:19:34.532Z,57.37
2019-03-10T12:22:08.914Z,57.46
2019-03-10T12:24:43.297Z,57.44
2019-03-10T12:27:17.490Z,57.50
2019-03-10T12:29:51.599Z,57.53
2019-03-10T12:32:25.903Z,57.58
2019-03-10T12:35:00.207Z,57.62
2019-03-10T12:37:34.370Z,57.59
2019-03-10T12:40:09.062Z,57.65
2019-03-10T12:42:44.177Z,57.69
2019-03-10T12:45:18.474Z,57.73
2019-03-10T12:47:52.783Z,57.84
2019-03-10T12:50:26.989Z,57.83
2019-03-10T12:53:01.320Z,57.87
2019-03-10T12:55:35.597Z,57.94
2019-03-10T12:58:10.854Z,57.91
2019-03-10T13:00:45.210Z,57.99
2019-03-10T13:03:20.750Z,58.03
2019-03-10T13:05:54.685Z,58.00
2019-03-10T13:08:29.193Z,58.08
2019-03-10T13:11:05.374Z,58.31
2019-03-10T13:13:39.754Z,58.34
2019-03-10T13:16:13.999Z,58.25
2019-03-10T13:18:48.283Z,58.66
2019-03-10T13:21:22.686Z,58.79
2019-03-10T13:23:57.026Z,58.84
2019-03-10T13:26:31.174Z,58.81
2019-03-10T13:29:05.545Z,58.83
2019-03-10T13:31:39.567Z,58.92
2019-03-10T13:34:13.860Z,58.62
2019-03-10T13:36:48.272Z,57.81
2019-03-10T13:39:22.713Z,57.98
2019-03-10T13:41:57.043Z,57.98
2019-03-10T13:44:31.396Z,58.19
2019-03-10T13:47:05.749Z,58.26
2019-03-10T13:49:39.920Z,58.32
2019-03-10T13:52:17.151Z,58.46
2019-03-10T13:54:51.663Z,58.08
2019-03-10T13:57:27.225Z,57.48
2019-03-10T14:00:01.455Z,58.00
2019-03-10T14:02:36.665Z,57.99
2019-03-10T14:05:12.280Z,58.13
2019-03-10T14:07:46.353Z,58.27
2019-03-10T14:10:20.730Z,58.48
2019-03-10T14:12:55.057Z,58.79
2019-03-10T14:15:30.286Z,58.71
2019-03-10T14:18:04.177Z,58.88
2019-03-10T14:20:39.464Z,59.00
2019-03-10T14:23:13.481Z,58.96
2019-03-10T14:25:47.780Z,58.92
2019-03-10T14:28:22.455Z,59.11
2019-03-10T14:30:56.880Z,59.01
2019-03-10T14:33:32.193Z,59.13
2019-03-10T14:36:06.515Z,59.04
2019-03-10T14:38:40.574Z,59.02
2019-03-10T14:41:14.655Z,58.97
2019-03-10T14:43:49.327Z,57.88
2019-03-10T14:46:24.355Z,57.81
2019-03-10T14:48:58.603Z,57.74
2019-03-10T14:51:32.722Z,57.38
2019-03-10T14:54:09.367Z,57.45
2019-03-10T14:56:43.549Z,57.81
2019-03-10T14:59:17.885Z,57.58
2019-03-10T15:01:52.960Z,57.83
2019-03-10T15:04:33.573Z,57.56
2019-03-10T15:07:07.834Z,57.84
2019-03-10T15:09:41.957Z,58.12
2019-03-10T15:12:16.005Z,58.03
2019-03-10T15:14:50.334Z,57.42
2019-03-10T15:17:24.476Z,57.67
2019-03-10T15:19:58.515Z,57.35
2019-03-10T15:22:32.559Z,57.88
2019-03-10T15:25:07.210Z,57.99
2019-03-10T15:27:41.564Z,58.14
2019-03-10T15:30:18.356Z,58.29
2019-03-10T15:32:53.626Z,57.74
2019-03-10T15:35:27.772Z,57.76
2019-03-10T15:38:03.133Z,58.17
2019-03-10T15:40:37.109Z,57.97
2019-03-10T15:43:11.190Z,58.33
2019-03-10T15:45:45.469Z,58.21
2019-03-10T15:48:19.794Z,58.48
2019-03-10T15:50:53.810Z,58.58
2019-03-10T15:53:28.283Z,57.52
2019-03-10T15:56:02.350Z,58.36
2019-03-10T15:58:38.310Z,58.00
2019-03-10T16:01:12.766Z,58.50
2019-03-10T16:03:46.928Z,58.16
2019-03-10T16:06:21.227Z,58.23
2019-03-10T16:08:55.866Z,57.15
2019-03-10T16:11:30.139Z,56.70
2019-03-10T16:14:04.720Z,57.03
2019-03-10T16:16:40.087Z,57.06
2019-03-10T16:19:15.733Z,57.21
2019-03-10T16:21:49.917Z,57.15
2019-03-10T16:24:24.274Z,57.13
2019-03-10T16:26:58.417Z,57.33
2019-03-10T16:29:33.046Z,57.37
2019-03-10T16:32:07.291Z,57.42
2019-03-10T16:34:41.546Z,57.40
2019-03-10T16:37:15.958Z,57.40
2019-03-10T16:39:50.528Z,57.50
2019-03-10T16:42:24.930Z,57.46
2019-03-10T16:45:00.513Z,57.33
2019-03-10T16:47:34.702Z,57.38
2019-03-10T16:50:10.656Z,57.40
2019-03-10T16:52:45.744Z,57.49
2019-03-10T16:55:20.196Z,57.44
2019-03-10T16:57:54.565Z,57.59
2019-03-10T17:00:28.709Z,57.58
2019-03-10T17:03:02.821Z,57.90
2019-03-10T17:05:36.771Z,57.93
2019-03-10T17:08:10.955Z,57.98
2019-03-10T17:10:45.059Z,58.06
2019-03-10T17:13:19.408Z,57.92
2019-03-10T17:15:53.696Z,57.61
2019-03-10T17:18:28.053Z,57.43
2019-03-10T17:21:02.462Z,57.54
2019-03-10T17:23:36.745Z,57.64
2019-03-10T17:26:10.949Z,57.65
2019-03-10T17:28:45.311Z,57.77
2019-03-10T17:31:21.432Z,57.76
2019-03-10T17:33:55.867Z,57.77
2019-03-10T17:36:30.062Z,57.81
2019-03-10T17:39:07.812Z,57.83
2019-03-10T17:41:41.956Z,57.93
2019-03-10T17:44:16.288Z,58.00
2019-03-10T17:46:50.357Z,58.01
2019-03-10T17:49:24.453Z,58.03
2019-03-10T17:51:59.478Z,58.00
2019-03-10T17:54:33.456Z,58.13
2019-03-10T17:57:07.795Z,58.17
2019-03-10T17:59:42.028Z,58.12
2019-03-10T18:02:16.107Z,58.15
2019-03-10T18:04:50.232Z,58.19
2019-03-10T18:07:24.313Z,58.20
2019-03-10T18:09:58.666Z,58.28
2019-03-10T18:12:32.998Z,58.31
2019-03-10T18:15:09.206Z,58.31
2019-03-10T18:17:44.339Z,58.33
2019-03-10T18:20:18.751Z,58.28
2019-03-10T18:22:53.255Z,58.30
2019-03-10T18:25:27.427Z,58.37
2019-03-10T18:28:01.511Z,58.36
2019-03-10T18:30:35.915Z,58.29
2019-03-10T18:33:11.306Z,58.29
2019-03-10T18:35:45.639Z,58.31
2019-03-10T18:38:19.827Z,58.26
2019-03-10T18:40:53.863Z,57.32
2019-03-10T18:43:28.101Z,57.27
2019-03-10T18:46:02.241Z,57.19
2019-03-10T18:48:37.336Z,57.26
2019-03-10T18:51:13.519Z,57.37
2019-03-10T18:53:47.590Z,57.37
2019-03-10T18:56:21.998Z,57.45
2019-03-10T18:58:56.626Z,57.56
2019-03-10T19:01:30.795Z,57.60
2019-03-10T19:04:05.167Z,57.48
2019-03-10T19:06:39.554Z,57.52
2019-03-10T19:09:16.303Z,57.75
2019-03-10T19:11:49.787Z,57.77
2019-03-10T19:14:25.246Z,57.74
2019-03-10T19:17:00.423Z,57.82
2019-03-10T19:19:34.434Z,57.83
2019-03-10T19:22:08.567Z,57.80
2019-03-10T19:24:43.663Z,57.69
2019-03-10T19:27:17.709Z,57.79
2019-03-10T19:29:51.901Z,57.65
2019-03-10T19:32:26.336Z,57.64
2019-03-10T19:35:00.412Z,57.69
2019-03-10T19:37:34.719Z,57.77
2019-03-10T19:40:09.610Z,57.76
2019-03-10T19:42:43.975Z,57.78
2019-03-10T19:45:18.690Z,57.82
2019-03-10T19:47:53.185Z,57.89
2019-03-10T19:50:27.963Z,57.93
2019-03-10T19:53:02.163Z,57.97
2019-03-10T19:55:36.480Z,57.93
2019-03-10T19:58:10.665Z,57.99
2019-03-10T20:00:46.069Z,57.93
2019-03-10T20:03:21.486Z,57.91
2019-03-10T20:05:55.660Z,57.91
2019-03-10T20:08:30.073Z,57.83
2019-03-10T20:11:05.454Z,57.85
2019-03-10T20:13:39.646Z,57.75
2019-03-10T20:16:13.913Z,57.77
2019-03-10T20:18:48.178Z,57.84
2019-03-10T20:21:22.406Z,57.80
2019-03-10T20:23:57.069Z,57.78
2019-03-10T20:26:32.425Z,57.80
2019-03-10T20:29:07.300Z,57.79
2019-03-10T20:31:41.843Z,57.93
2019-03-10T20:34:16.062Z,57.97
2019-03-10T20:36:52.166Z,57.85
2019-03-10T20:39:26.458Z,57.87
2019-03-10T20:42:05.212Z,57.93
2019-03-10T20:44:36.724Z,57.98
2019-03-10T20:47:11.914Z,58.07
2019-03-10T20:49:46.208Z,58.00
2019-03-10T20:52:20.250Z,58.03
2019-03-10T20:54:54.656Z,58.07
2019-03-10T20:57:28.965Z,58.10
2019-03-10T21:00:03.800Z,58.16
2019-03-10T21:02:38.620Z,57.58
2019-03-10T21:05:13.254Z,57.76
2019-03-10T21:07:48.572Z,57.96
2019-03-10T21:10:22.785Z,57.86
2019-03-10T21:12:56.964Z,57.90
2019-03-10T21:15:31.572Z,57.90
2019-03-10T21:18:05.833Z,57.92
2019-03-10T21:20:40.045Z,58.00
2019-03-10T21:23:15.077Z,58.00
2019-03-10T21:25:49.545Z,57.83
2019-03-10T21:28:25.424Z,57.76
2019-03-10T21:30:59.702Z,57.68
2019-03-10T21:33:33.699Z,57.63
2019-03-10T21:36:08.884Z,57.56
2019-03-10T21:38:43.282Z,57.40
2019-03-10T21:41:17.577Z,57.38
2019-03-10T21:43:51.912Z,57.29
2019-03-10T21:46:26.204Z,57.33
2019-03-10T21:49:00.382Z,57.35
2019-03-10T21:51:34.829Z,57.29
2019-03-10T21:54:09.100Z,57.18
2019-03-10T21:56:43.026Z,57.08
2019-03-10T21:59:17.049Z,57.12
2019-03-10T22:01:51.238Z,57.09
2019-03-10T22:04:25.595Z,57.07
2019-03-10T22:06:59.862Z,56.97
2019-03-10T22:09:34.897Z,57.12
2019-03-10T22:12:09.292Z,57.12
2019-03-10T22:14:43.468Z,56.94
2019-03-10T22:17:17.676Z,56.84
2019-03-10T22:19:51.748Z,56.83
2019-03-10T22:22:25.955Z,56.82
2019-03-10T22:25:04.743Z,56.78
2019-03-10T22:27:36.086Z,56.72
2019-03-10T22:30:10.730Z,56.72
2019-03-10T22:32:44.694Z,56.74
2019-03-10T22:35:19.192Z,56.65
2019-03-10T22:37:54.481Z,56.65
2019-03-10T22:40:28.800Z,56.60
2019-03-10T22:43:02.867Z,56.61
2019-03-10T22:45:36.983Z,56.50
2019-03-10T22:48:11.213Z,56.41
2019-03-10T22:50:45.352Z,56.45
2019-03-10T22:53:19.683Z,56.44
2019-03-10T22:55:53.972Z,56.46
2019-03-10T22:58:28.097Z,56.49
2019-03-10T23:01:02.226Z,56.54
2019-03-10T23:03:37.390Z,56.51
2019-03-10T23:06:11.524Z,56.47
2019-03-10T23:08:45.785Z,56.38
2019-03-10T23:11:20.130Z,56.45
2019-03-10T23:13:54.237Z,56.41
2019-03-10T23:16:28.413Z,56.45
2019-03-10T23:19:02.441Z,56.46
2019-03-10T23:21:36.609Z,56.43
2019-03-10T23:24:10.921Z,56.38
2019-03-10T23:26:45.238Z,56.45
2019-03-10T23:29:19.269Z,56.48
2019-03-10T23:31:53.564Z,56.48
2019-03-10T23:34:27.480Z,56.50
2019-03-10T23:37:02.651Z,56.50
2019-03-10T23:39:37.561Z,56.51
2019-03-10T23:42:11.902Z,56.55
2019-03-10T23:44:46.176Z,56.56
2019-03-10T23:47:20.552Z,56.59
2019-03-10T23:49:54.839Z,56.64
2019-03-10T23:52:29.048Z,56.66
2019-03-10T23:55:03.234Z,56.63
2019-03-10T23:57:37.453Z,56.58
